CDT,Max TemperatureF,Mean TemperatureF,Min TemperatureF,Max Dew PointF,MeanDew PointF,Min DewpointF,Max Humidity, Mean Humidity, Min Humidity, Max Sea Level PressureIn, Mean Sea Level PressureIn, Min Sea Level PressureIn, Max VisibilityMiles, Mean VisibilityMiles, Min VisibilityMiles, Max Wind SpeedMPH, Mean Wind SpeedMPH, Max Gust SpeedMPH,PrecipitationIn, CloudCover, Events, WindDirDegrees
2014-3-1,26,16,6,22,10,1,88,75,61,30.43,30.26,30.03,10,4,1,18,13,22,0.21,8,Snow,350
2014-3-2,6,-1,-8,1,-8,-17,80,66,51,30.55,30.48,30.37,10,10,2,22,14,25,T,4,Rain-Snow,338
2014-3-3,12,0,-13,2,-8,-20,72,61,50,30.61,30.52,30.40,10,10,9,16,5,20,0.00,0,Snow,333
2014-3-4,27,18,9,14,9,3,76,61,46,30.36,30.24,30.17,10,10,8,14,8,89,0.00,3,,134
2014-3-5,23,20,17,16,14,10,84,76,67,30.45,30.36,30.26,10,5,0,21,14,30,0.05,7,Fog-Snow,77
2014-3-6,31,19,7,19,12,3,84,71,58,30.43,30.27,30.06,10,7,2,16,8,17,0.00,0,,112
2014-3-7,47,34,20,35,26,17,89,69,49,30.05,29.97,29.89,8,5,2,18,10,24,0.00,1,,239
2014-3-8,34,30,26,31,28,20,92,82,72,30.31,30.20,30.04,10,5,1,16,8,18,T,7,Snow,356
2014-3-9,45,33,20,33,26,18,92,76,59,30.30,30.08,29.80,10,8,2,23,13,29,0.00,0,,214
2014-3-10,59,48,36,46,38,31,92,77,61,29.80,29.74,29.70,10,10,7,17,9,21,0.00,1,,250
2014-3-11,48,41,34,37,35,32,96,81,65,29.81,29.71,29.64,10,8,5,29,12,36,0.01,2,,42
2014-3-12,36,31,25,32,24,19,89,74,59,30.14,29.98,29.80,10,10,5,25,14,31,0.01,5,Rain-Snow,334
2014-3-13,48,34,21,36,27,18,85,72,59,30.14,30.00,29.81,10,10,6,20,8,23,0.00,2,,203
2014-3-14,52,43,33,39,33,27,89,67,45,29.95,29.76,29.63,10,10,10,30,15,36,T,2,,258
2014-3-15,44,37,30,30,27,25,92,71,49,30.23,30.11,29.96,10,9,2,20,10,28,0.03,3,Snow,39
2014-3-16,31,25,18,28,19,9,92,73,53,30.40,30.27,30.19,10,6,1,26,15,33,0.04,5,Snow,61
2014-3-17,40,28,16,24,17,10,88,64,40,30.15,29.91,29.74,10,10,10,20,10,24,0.00,0,,145
2014-3-18,53,43,32,39,32,24,89,73,56,29.77,29.70,29.61,10,9,5,25,14,32,0.02,2,Rain,139
2014-3-19,43,36,29,39,33,26,93,82,70,30.08,29.78,29.54,10,4,1,30,14,35,0.02,7,Rain-Snow,291
2014-3-20,50,39,28,30,27,25,92,66,39,30.09,30.02,29.96,10,10,6,9,4,10,T,2,,12
2014-3-21,60,45,30,40,32,26,85,66,46,30.01,29.88,29.73,10,10,7,33,15,43,0.00,3,,87
2014-3-22,39,31,23,28,22,12,82,65,47,30.43,30.25,30.02,10,10,10,23,17,27,0.00,4,,317
2014-3-23,32,24,16,14,11,6,74,58,42,30.53,30.47,30.41,10,10,10,20,10,23,0.00,0,,334
2014-3-24,38,29,19,27,19,10,85,63,41,30.44,30.26,30.11,10,7,0,22,5,28,0.02,5,Fog-Snow,273
2014-3-25,27,19,11,26,13,8,84,67,50,30.31,30.22,30.11,10,10,2,26,13,33,0.00,3,Snow,305
2014-3-26,43,28,12,23,16,10,80,59,38,30.32,30.15,29.91,10,10,10,29,16,35,0.00,3,,164
2014-3-27,53,45,36,47,39,23,92,69,46,29.90,29.57,29.37,10,7,3,32,22,39,0.08,7,Rain-Snow-Thunderstorm,181
2014-3-28,44,40,35,43,32,30,92,81,70,30.19,29.94,29.47,10,7,2,31,9,39,0.01,8,Rain,326
2014-3-29,51,41,31,33,30,27,89,66,42,30.27,30.23,30.18,10,7,2,16,7,20,0.00,4,,12
2014-3-30,63,47,30,38,33,26,85,62,39,30.26,30.11,29.96,10,8,5,24,16,31,0.00,0,,164
2014-3-31,68,53,37,47,39,35,76,57,37,29.97,29.78,29.61,10,10,6,37,23,47,0.02,1,Rain,175